createdAt,value
2018-12-10T00:01:53.354Z,6.26
2018-12-10T00:04:21.862Z,6.15
2018-12-10T00:06:50.460Z,6.20
2018-12-10T00:09:19.153Z,6.14
2018-12-10T00:11:47.731Z,6.24
2018-12-10T00:14:16.386Z,6.21
2018-12-10T00:16:44.954Z,6.24
2018-12-10T00:19:13.445Z,6.21
2018-12-10T00:21:41.897Z,6.27
2018-12-10T00:24:10.510Z,6.16
2018-12-10T00:26:38.931Z,6.20
2018-12-10T00:29:07.543Z,6.15
2018-12-10T00:31:36.022Z,6.19
2018-12-10T00:34:04.610Z,6.12
2018-12-10T00:36:33.139Z,6.25
2018-12-10T00:39:01.821Z,6.19
2018-12-10T00:41:31.137Z,6.17
2018-12-10T00:43:59.777Z,6.14
2018-12-10T00:46:28.302Z,6.11
2018-12-10T00:48:56.849Z,6.21
2018-12-10T00:51:25.351Z,6.21
2018-12-10T00:53:53.953Z,6.20
2018-12-10T00:56:22.550Z,6.04
2018-12-10T00:58:51.525Z,6.25
2018-12-10T01:01:20.076Z,6.12
2018-12-10T01:03:49.127Z,6.05
2018-12-10T01:06:17.561Z,6.09
2018-12-10T01:08:46.167Z,6.12
2018-12-10T01:11:14.656Z,6.12
2018-12-10T01:13:43.268Z,6.20
2018-12-10T01:16:11.734Z,6.21
2018-12-10T01:18:40.232Z,6.16
2018-12-10T01:21:08.851Z,6.13
2018-12-10T01:23:37.331Z,6.17
2018-12-10T01:26:05.843Z,6.05
2018-12-10T01:28:34.452Z,6.04
2018-12-10T01:31:03.018Z,6.09
2018-12-10T01:33:31.662Z,6.06
2018-12-10T01:36:00.300Z,6.08
2018-12-10T01:38:28.806Z,6.07
2018-12-10T01:40:57.325Z,6.19
2018-12-10T01:43:25.904Z,6.04
2018-12-10T01:45:54.395Z,5.87
2018-12-10T01:48:23.076Z,5.85
2018-12-10T01:50:51.654Z,5.76
2018-12-10T01:53:20.275Z,5.82
2018-12-10T01:55:48.789Z,5.83
2018-12-10T01:58:17.278Z,5.69
2018-12-10T02:00:45.796Z,5.60
2018-12-10T02:03:14.333Z,5.58
2018-12-10T02:05:42.794Z,5.56
2018-12-10T02:08:11.470Z,5.75
2018-12-10T02:10:40.017Z,5.69
2018-12-10T02:13:08.606Z,5.64
2018-12-10T02:15:37.182Z,5.62
2018-12-10T02:18:05.952Z,5.68
2018-12-10T02:20:34.419Z,5.64
2018-12-10T02:23:02.944Z,5.56
2018-12-10T02:25:31.562Z,5.58
2018-12-10T02:28:00.045Z,5.61
2018-12-10T02:30:28.523Z,5.58
2018-12-10T02:32:57.212Z,5.60
2018-12-10T02:35:26.419Z,5.68
2018-12-10T02:37:54.914Z,5.65
2018-12-10T02:40:23.427Z,5.58
2018-12-10T02:42:51.947Z,5.61
2018-12-10T02:45:20.496Z,5.65
2018-12-10T02:47:49.065Z,5.60
2018-12-10T02:50:17.678Z,5.62
2018-12-10T02:52:46.145Z,5.66
2018-12-10T02:55:14.667Z,5.67
2018-12-10T02:57:43.260Z,5.68
2018-12-10T03:00:11.909Z,5.51
2018-12-10T03:02:40.702Z,4.87
2018-12-10T03:05:09.736Z,4.46
2018-12-10T03:07:38.303Z,4.55
2018-12-10T03:10:07.196Z,4.51
2018-12-10T03:12:35.657Z,4.65
2018-12-10T03:15:04.174Z,4.62
2018-12-10T03:17:32.678Z,4.71
2018-12-10T03:20:01.157Z,4.76
2018-12-10T03:22:29.762Z,4.69
2018-12-10T03:24:58.267Z,4.76
2018-12-10T03:27:26.717Z,4.83
2018-12-10T03:29:55.216Z,4.99
2018-12-10T03:32:23.691Z,4.81
2018-12-10T03:34:52.414Z,4.88
2018-12-10T03:37:20.978Z,4.79
2018-12-10T03:39:49.552Z,4.89
2018-12-10T03:42:18.042Z,4.88
2018-12-10T03:44:46.572Z,4.84
2018-12-10T03:47:15.062Z,4.74
2018-12-10T03:49:43.614Z,4.57
2018-12-10T03:52:12.451Z,4.65
2018-12-10T03:54:41.001Z,4.62
2018-12-10T03:57:09.605Z,4.69
2018-12-10T03:59:38.113Z,4.69
2018-12-10T04:02:06.596Z,4.66
2018-12-10T04:04:35.163Z,4.79
2018-12-10T04:07:03.797Z,4.71
2018-12-10T04:09:32.507Z,4.71
2018-12-10T04:12:00.971Z,4.72
2018-12-10T04:14:29.739Z,4.75
2018-12-10T04:16:58.696Z,4.72
2018-12-10T04:19:27.207Z,4.70
2018-12-10T04:21:55.737Z,4.75
2018-12-10T04:24:24.297Z,4.57
2018-12-10T04:26:52.821Z,4.63
2018-12-10T04:29:21.389Z,4.58
2018-12-10T04:31:50.631Z,4.73
2018-12-10T04:34:19.146Z,4.68
2018-12-10T04:36:49.713Z,4.63
2018-12-10T04:39:18.222Z,4.63
2018-12-10T04:41:46.692Z,4.64
2018-12-10T04:44:15.149Z,4.63
2018-12-10T04:46:43.648Z,4.41
2018-12-10T04:49:12.091Z,4.35
2018-12-10T04:51:40.616Z,4.40
2018-12-10T04:54:09.158Z,4.36
2018-12-10T04:56:37.647Z,4.30
2018-12-10T04:59:06.252Z,4.28
2018-12-10T05:01:34.781Z,4.14
2018-12-10T05:04:03.189Z,4.12
2018-12-10T05:06:32.147Z,4.11
2018-12-10T05:09:00.702Z,4.07
2018-12-10T05:11:29.163Z,4.08
2018-12-10T05:13:57.943Z,4.05
2018-12-10T05:16:28.137Z,4.02
2018-12-10T05:18:58.034Z,4.02
2018-12-10T05:21:26.599Z,4.04
2018-12-10T05:23:55.037Z,3.99
2018-12-10T05:26:23.812Z,3.92
2018-12-10T05:28:52.857Z,3.85
2018-12-10T05:31:21.379Z,3.84
2018-12-10T05:33:49.957Z,3.72
2018-12-10T05:36:18.491Z,3.69
2018-12-10T05:38:47.021Z,3.75
2018-12-10T05:41:15.521Z,3.58
2018-12-10T05:43:44.038Z,3.63
2018-12-10T05:46:12.652Z,3.59
2018-12-10T05:48:41.177Z,3.53
2018-12-10T05:51:10.564Z,3.55
2018-12-10T05:53:39.158Z,3.56
2018-12-10T05:56:09.159Z,3.63
2018-12-10T05:58:37.803Z,3.61
2018-12-10T06:01:06.409Z,3.68
2018-12-10T06:03:34.884Z,3.80
2018-12-10T06:06:03.382Z,3.61
2018-12-10T06:08:31.881Z,3.72
2018-12-10T06:11:00.391Z,3.68
2018-12-10T06:13:28.835Z,3.75
2018-12-10T06:15:57.796Z,3.74
2018-12-10T06:18:26.378Z,3.66
2018-12-10T06:20:54.907Z,3.59
2018-12-10T06:23:23.478Z,3.56
2018-12-10T06:25:52.966Z,3.53
2018-12-10T06:28:22.310Z,3.61
2018-12-10T06:30:51.109Z,3.57
2018-12-10T06:33:21.284Z,3.51
2018-12-10T06:35:50.073Z,3.48
2018-12-10T06:38:18.700Z,3.59
2018-12-10T06:40:47.411Z,3.47
2018-12-10T06:43:15.983Z,3.47
2018-12-10T06:45:45.177Z,3.46
2018-12-10T06:48:13.651Z,3.40
2018-12-10T06:50:42.160Z,3.57
2018-12-10T06:53:10.649Z,3.55
2018-12-10T06:55:39.113Z,3.56
2018-12-10T06:58:08.141Z,3.41
2018-12-10T07:00:36.690Z,3.31
2018-12-10T07:03:05.941Z,3.29
2018-12-10T07:05:34.681Z,3.40
2018-12-10T07:08:03.402Z,3.41
2018-12-10T07:10:32.330Z,3.40
2018-12-10T07:13:01.465Z,3.36
2018-12-10T07:15:30.582Z,3.45
2018-12-10T07:17:59.746Z,3.43
2018-12-10T07:20:28.235Z,3.35
2018-12-10T07:22:56.835Z,3.43
2018-12-10T07:25:25.346Z,3.37
2018-12-10T07:27:53.847Z,3.41
2018-12-10T07:30:22.341Z,3.33
2018-12-10T07:32:51.385Z,3.36
2018-12-10T07:35:19.850Z,3.38
2018-12-10T07:37:48.474Z,3.32
2018-12-10T07:40:16.932Z,3.51
2018-12-10T07:42:45.410Z,3.53
2018-12-10T07:45:13.917Z,3.63
2018-12-10T07:47:42.347Z,3.55
2018-12-10T07:50:11.882Z,3.54
2018-12-10T07:52:40.373Z,3.53
2018-12-10T07:55:08.905Z,3.48
2018-12-10T07:57:37.393Z,3.48
2018-12-10T08:00:05.909Z,3.45
2018-12-10T08:02:34.342Z,3.51
2018-12-10T08:05:02.927Z,3.54
2018-12-10T08:07:32.028Z,3.55
2018-12-10T08:10:00.509Z,3.66
2018-12-10T08:12:30.735Z,3.87
2018-12-10T08:14:59.192Z,4.01
2018-12-10T08:17:27.689Z,3.93
2018-12-10T08:19:56.226Z,3.79
2018-12-10T08:22:24.690Z,2.75
2018-12-10T08:24:53.268Z,3.95
2018-12-10T08:27:21.744Z,3.89
2018-12-10T08:29:50.366Z,3.96
2018-12-10T08:32:18.844Z,4.03
2018-12-10T08:34:47.286Z,3.98
2018-12-10T08:37:15.770Z,4.00
2018-12-10T08:39:44.412Z,4.10
2018-12-10T08:42:12.829Z,4.19
2018-12-10T08:44:41.445Z,4.39
2018-12-10T08:47:16.249Z,4.63
2018-12-10T08:49:41.645Z,4.56
2018-12-10T08:52:10.262Z,4.60
2018-12-10T08:54:38.802Z,4.68
2018-12-10T08:57:07.383Z,4.66
2018-12-10T08:59:35.985Z,4.71
2018-12-10T09:02:04.545Z,4.77
2018-12-10T09:04:33.122Z,4.90
2018-12-10T09:07:05.330Z,4.92
2018-12-10T09:09:33.888Z,5.01
2018-12-10T09:12:02.359Z,4.92
2018-12-10T09:14:31.544Z,4.89
2018-12-10T09:17:01.162Z,5.01
2018-12-10T09:19:30.451Z,4.93
2018-12-10T09:21:59.069Z,5.27
2018-12-10T09:24:27.558Z,5.31
2018-12-10T09:26:56.151Z,5.34
2018-12-10T09:29:24.844Z,5.37
2018-12-10T09:31:53.562Z,5.50
2018-12-10T09:34:22.570Z,5.58
2018-12-10T09:36:51.131Z,5.63
2018-12-10T09:39:19.673Z,5.63
2018-12-10T09:41:48.259Z,5.67
2018-12-10T09:44:16.926Z,5.80
2018-12-10T09:46:45.507Z,5.65
2018-12-10T09:49:14.122Z,5.61
2018-12-10T09:51:43.052Z,5.71
2018-12-10T09:54:12.449Z,5.68
2018-12-10T09:56:41.756Z,5.62
2018-12-10T09:59:11.356Z,5.74
2018-12-10T10:01:39.912Z,5.82
2018-12-10T10:04:09.383Z,5.78
2018-12-10T10:06:38.660Z,5.96
2018-12-10T10:09:08.042Z,5.80
2018-12-10T10:11:38.195Z,5.81
2018-12-10T10:14:07.762Z,5.92
2018-12-10T10:16:36.344Z,6.25
2018-12-10T10:19:04.943Z,6.23
2018-12-10T10:21:33.467Z,6.55
2018-12-10T10:24:02.020Z,6.64
2018-12-10T10:26:30.787Z,6.35
2018-12-10T10:28:59.244Z,6.35
2018-12-10T10:31:27.839Z,6.48
2018-12-10T10:33:56.386Z,6.44
2018-12-10T10:36:24.933Z,6.37
2018-12-10T10:38:53.406Z,6.49
2018-12-10T10:41:22.053Z,6.68
2018-12-10T10:43:51.437Z,6.79
2018-12-10T10:46:20.809Z,6.97
2018-12-10T10:48:49.464Z,6.68
2018-12-10T10:51:17.991Z,6.95
2018-12-10T10:53:47.409Z,7.12
2018-12-10T10:56:16.018Z,7.25
2018-12-10T10:58:44.692Z,7.14
2018-12-10T11:01:18.526Z,7.12
2018-12-10T11:03:47.200Z,7.49
2018-12-10T11:06:15.877Z,7.28
2018-12-10T11:08:44.400Z,7.37
2018-12-10T11:11:12.931Z,7.27
2018-12-10T11:13:41.499Z,7.32
2018-12-10T11:16:10.815Z,7.20
2018-12-10T11:18:39.416Z,6.90
2018-12-10T11:21:08.731Z,6.96
2018-12-10T11:23:37.235Z,7.29
2018-12-10T11:26:06.421Z,6.92
2018-12-10T11:28:35.142Z,7.13
2018-12-10T11:31:03.695Z,6.92
2018-12-10T11:33:32.258Z,6.74
2018-12-10T11:36:00.887Z,6.99
2018-12-10T11:38:29.469Z,6.83
2018-12-10T11:40:57.994Z,6.78
2018-12-10T11:43:26.451Z,6.85
2018-12-10T11:45:55.264Z,6.88
2018-12-10T11:48:23.811Z,6.79
2018-12-10T11:50:52.951Z,7.05
2018-12-10T11:53:21.512Z,6.86
2018-12-10T11:55:50.140Z,7.04
2018-12-10T11:58:18.671Z,7.12
2018-12-10T12:00:47.293Z,7.43
2018-12-10T12:03:17.021Z,7.46
2018-12-10T12:05:45.527Z,7.48
2018-12-10T12:08:14.212Z,7.41
2018-12-10T12:10:42.782Z,7.10
2018-12-10T12:13:11.406Z,7.62
2018-12-10T12:15:40.166Z,7.81
2018-12-10T12:18:08.896Z,7.55
2018-12-10T12:20:37.581Z,7.26
2018-12-10T12:23:06.157Z,6.90
2018-12-10T12:25:35.250Z,6.71
2018-12-10T12:28:03.776Z,6.79
2018-12-10T12:30:32.339Z,6.81
2018-12-10T12:33:00.837Z,6.60
2018-12-10T12:35:29.376Z,6.54
2018-12-10T12:37:57.938Z,6.71
2018-12-10T12:40:27.100Z,6.62
2018-12-10T12:42:55.614Z,6.94
2018-12-10T12:45:24.221Z,7.14
2018-12-10T12:47:53.462Z,7.15
2018-12-10T12:50:22.008Z,7.20
2018-12-10T12:52:51.373Z,7.17
2018-12-10T12:55:20.562Z,7.38
2018-12-10T12:57:49.108Z,7.52
2018-12-10T13:00:17.739Z,7.74
2018-12-10T13:02:46.355Z,7.66
2018-12-10T13:05:14.902Z,7.73
2018-12-10T13:07:43.480Z,8.06
2018-12-10T13:10:12.123Z,7.67
2018-12-10T13:12:40.799Z,8.30
2018-12-10T13:15:09.553Z,8.23
2018-12-10T13:17:38.100Z,7.94
2018-12-10T13:20:07.041Z,7.71
2018-12-10T13:22:35.625Z,7.79
2018-12-10T13:25:04.086Z,7.59
2018-12-10T13:27:33.203Z,7.63
2018-12-10T13:30:01.784Z,7.73
2018-12-10T13:32:30.533Z,7.37
2018-12-10T13:34:59.061Z,7.47
2018-12-10T13:37:28.736Z,7.45
2018-12-10T13:39:57.343Z,7.43
2018-12-10T13:42:25.873Z,7.08
2018-12-10T13:44:54.479Z,6.78
2018-12-10T13:47:24.360Z,6.70
2018-12-10T13:49:52.846Z,6.74
2018-12-10T13:52:21.509Z,6.50
2018-12-10T13:54:50.726Z,6.37
2018-12-10T13:57:19.318Z,6.44
2018-12-10T13:59:47.880Z,6.39
2018-12-10T14:02:16.434Z,6.46
2018-12-10T14:04:50.261Z,6.39
2018-12-10T14:07:19.145Z,6.28
2018-12-10T14:09:47.651Z,6.26
2018-12-10T14:12:16.256Z,6.29
2018-12-10T14:14:44.930Z,6.22
2018-12-10T14:17:13.547Z,6.31
2018-12-10T14:19:42.097Z,6.39
2018-12-10T14:22:10.779Z,6.29
2018-12-10T14:24:39.281Z,6.37
2018-12-10T14:27:07.827Z,6.22
2018-12-10T14:29:37.117Z,6.26
2018-12-10T14:32:05.757Z,6.35
2018-12-10T14:34:34.303Z,6.31
2018-12-10T14:37:02.884Z,6.46
2018-12-10T14:39:31.441Z,6.48
2018-12-10T14:42:00.131Z,6.58
2018-12-10T14:44:28.859Z,6.57
2018-12-10T14:46:57.432Z,6.65
2018-12-10T14:49:26.044Z,6.63
2018-12-10T14:54:39.757Z,6.62
2018-12-10T14:57:08.309Z,6.20
2018-12-10T14:59:36.913Z,6.62
2018-12-10T15:02:05.906Z,6.58
2018-12-10T15:04:34.520Z,6.56
2018-12-10T15:07:03.104Z,6.42
2018-12-10T15:09:31.861Z,6.50
2018-12-10T15:12:00.497Z,6.39
2018-12-10T15:14:29.118Z,6.46
2018-12-10T15:16:57.697Z,6.34
2018-12-10T15:19:26.217Z,6.34
2018-12-10T15:21:55.466Z,6.39
2018-12-10T15:24:23.995Z,6.38
2018-12-10T15:26:53.174Z,6.20
2018-12-10T15:29:21.750Z,6.03
2018-12-10T15:31:50.573Z,5.96
2018-12-10T15:34:19.197Z,5.88
2018-12-10T15:36:47.820Z,5.81
2018-12-10T15:39:17.160Z,5.79
2018-12-10T15:41:46.412Z,5.69
2018-12-10T15:44:15.062Z,5.81
2018-12-10T15:46:43.763Z,5.65
2018-12-10T15:49:12.351Z,5.62
2018-12-10T15:51:41.485Z,5.81
2018-12-10T15:54:10.875Z,5.81
2018-12-10T15:56:39.450Z,5.74
2018-12-10T15:59:08.233Z,5.61
2018-12-10T16:01:38.419Z,5.63
2018-12-10T16:04:07.049Z,5.72
2018-12-10T16:06:36.304Z,5.60
2018-12-10T16:09:07.156Z,5.73
2018-12-10T16:11:35.815Z,5.66
2018-12-10T16:14:05.443Z,5.55
2018-12-10T16:16:34.252Z,5.76
2018-12-10T16:19:03.384Z,5.83
2018-12-10T16:21:32.023Z,5.90
2018-12-10T16:24:00.662Z,5.97
2018-12-10T16:26:29.243Z,6.12
2018-12-10T16:28:57.808Z,6.12
2018-12-10T16:31:27.937Z,5.98
2018-12-10T16:33:56.482Z,5.93
2018-12-10T16:36:25.102Z,5.89
2018-12-10T16:38:53.694Z,5.70
2018-12-10T16:41:22.357Z,5.64
2018-12-10T16:43:51.658Z,5.71
2018-12-10T16:46:20.209Z,5.70
2018-12-10T16:48:48.754Z,5.76
2018-12-10T16:51:17.361Z,5.42
2018-12-10T16:53:48.405Z,5.87
2018-12-10T16:56:18.857Z,5.83
2018-12-10T16:58:47.602Z,5.80
2018-12-10T17:01:16.197Z,5.74
2018-12-10T17:03:45.071Z,5.71
2018-12-10T17:06:14.506Z,5.64
2018-12-10T17:08:43.067Z,5.71
2018-12-10T17:11:12.281Z,5.88
2018-12-10T17:13:40.816Z,5.92
2018-12-10T17:16:09.633Z,5.90
2018-12-10T17:18:38.245Z,5.85
2018-12-10T17:21:06.814Z,5.95
2018-12-10T17:23:41.363Z,5.78
2018-12-10T17:26:10.763Z,5.81
2018-12-10T17:28:39.888Z,5.90
2018-12-10T17:31:09.145Z,5.86
2018-12-10T17:33:37.938Z,5.92
2018-12-10T17:36:08.048Z,5.86
2018-12-10T17:38:36.637Z,5.81
2018-12-10T17:41:07.503Z,5.90
2018-12-10T17:43:36.046Z,5.82
2018-12-10T17:46:04.630Z,5.84
2018-12-10T17:48:33.383Z,6.01
2018-12-10T17:51:02.463Z,5.81
2018-12-10T17:53:31.918Z,6.00
2018-12-10T17:56:00.412Z,6.00
2018-12-10T17:58:28.895Z,6.04
2018-12-10T18:00:57.419Z,6.00
2018-12-10T18:03:26.469Z,5.89
2018-12-10T18:05:55.582Z,5.85
2018-12-10T18:08:24.682Z,5.81
2018-12-10T18:10:54.536Z,5.88
2018-12-10T18:13:23.151Z,6.01
2018-12-10T18:15:51.941Z,6.09
2018-12-10T18:18:21.774Z,5.89
2018-12-10T18:20:50.454Z,5.92
2018-12-10T18:23:19.217Z,5.80
2018-12-10T18:25:47.912Z,5.84
2018-12-10T18:28:16.547Z,5.79
2018-12-10T18:30:45.257Z,5.66
2018-12-10T18:33:13.813Z,5.58
2018-12-10T18:35:42.448Z,5.58
2018-12-10T18:38:11.067Z,5.42
2018-12-10T18:40:39.794Z,5.30
2018-12-10T18:43:09.470Z,5.35
2018-12-10T18:45:38.826Z,5.42
2018-12-10T18:48:08.258Z,5.29
2018-12-10T18:50:36.937Z,5.33
2018-12-10T18:53:06.640Z,5.04
2018-12-10T18:55:35.152Z,4.98
2018-12-10T18:58:04.336Z,4.79
2018-12-10T19:00:33.706Z,4.85
2018-12-10T19:03:02.214Z,4.97
2018-12-10T19:05:32.097Z,4.95
2018-12-10T19:08:00.617Z,4.83
2018-12-10T19:10:29.292Z,4.80
2018-12-10T19:12:58.175Z,4.89
2018-12-10T19:15:27.488Z,4.95
2018-12-10T19:17:56.087Z,4.36
2018-12-10T19:20:24.840Z,4.88
2018-12-10T19:22:53.431Z,4.92
2018-12-10T19:25:22.089Z,4.98
2018-12-10T19:27:52.847Z,5.00
2018-12-10T19:30:21.720Z,5.00
2018-12-10T19:32:51.151Z,4.92
2018-12-10T19:35:22.063Z,5.01
2018-12-10T19:37:50.854Z,4.79
2018-12-10T19:40:19.974Z,5.04
2018-12-10T19:42:49.162Z,4.83
2018-12-10T19:45:18.615Z,4.73
2018-12-10T19:47:48.049Z,4.77
2018-12-10T19:50:16.709Z,4.59
2018-12-10T19:52:45.971Z,4.44
2018-12-10T19:55:14.508Z,4.35
2018-12-10T19:57:43.047Z,4.23
2018-12-10T20:00:12.875Z,4.07
2018-12-10T20:02:41.748Z,4.30
2018-12-10T20:05:12.538Z,4.25
2018-12-10T20:07:42.312Z,4.33
2018-12-10T20:10:28.063Z,4.23
2018-12-10T20:12:56.600Z,4.02
2018-12-10T20:15:25.903Z,4.01
2018-12-10T20:17:54.655Z,4.07
2018-12-10T20:20:30.847Z,4.01
2018-12-10T20:23:07.833Z,3.86
2018-12-10T20:25:37.038Z,3.98
2018-12-10T20:28:05.632Z,3.89
2018-12-10T20:30:35.304Z,3.87
2018-12-10T20:33:04.069Z,3.70
2018-12-10T20:35:32.716Z,3.56
2018-12-10T20:38:01.316Z,3.69
2018-12-10T20:40:30.067Z,3.62
2018-12-10T20:42:59.521Z,3.59
2018-12-10T20:45:28.257Z,3.47
2018-12-10T20:47:56.872Z,3.58
2018-12-10T20:50:25.655Z,3.48
2018-12-10T20:52:54.338Z,3.42
2018-12-10T20:55:22.958Z,3.28
2018-12-10T20:57:51.678Z,3.25
2018-12-10T21:00:20.302Z,3.38
2018-12-10T21:02:49.258Z,3.45
2018-12-10T21:05:26.487Z,3.32
2018-12-10T21:07:55.700Z,3.25
2018-12-10T21:10:25.582Z,3.35
2018-12-10T21:12:54.125Z,3.24
2018-12-10T21:15:22.688Z,3.03
2018-12-10T21:17:52.499Z,2.86
2018-12-10T21:20:22.540Z,2.92
2018-12-10T21:22:53.013Z,2.79
2018-12-10T21:25:21.679Z,2.77
2018-12-10T21:27:50.309Z,2.69
2018-12-10T21:30:20.042Z,2.57
2018-12-10T21:32:49.365Z,2.54
2018-12-10T21:35:18.153Z,2.58
2018-12-10T21:37:46.732Z,2.57
2018-12-10T21:40:15.283Z,2.63
2018-12-10T21:42:44.045Z,2.49
2018-12-10T21:45:13.109Z,2.53
2018-12-10T21:47:42.175Z,2.69
2018-12-10T21:50:10.728Z,2.63
2018-12-10T21:52:40.585Z,2.52
2018-12-10T21:55:09.261Z,2.69
2018-12-10T21:57:38.060Z,2.68
2018-12-10T22:00:06.974Z,2.57
2018-12-10T22:02:36.250Z,2.68
2018-12-10T22:05:04.994Z,2.69
2018-12-10T22:07:33.999Z,2.97
2018-12-10T22:10:02.982Z,2.84
2018-12-10T22:12:32.394Z,2.76
2018-12-10T22:15:01.141Z,2.75
2018-12-10T22:17:29.676Z,2.78
2018-12-10T22:19:58.248Z,2.75
2018-12-10T22:22:26.758Z,2.92
2018-12-10T22:24:55.309Z,2.84
2018-12-10T22:27:23.806Z,2.91
2018-12-10T22:29:52.455Z,2.91
2018-12-10T22:32:20.952Z,2.96
2018-12-10T22:34:49.493Z,2.74
2018-12-10T22:37:18.070Z,2.63
2018-12-10T22:39:46.717Z,2.55
2018-12-10T22:42:15.256Z,2.60
2018-12-10T22:44:43.986Z,2.79
2018-12-10T22:47:12.545Z,2.73
2018-12-10T22:49:42.448Z,2.56
2018-12-10T22:52:11.045Z,2.44
2018-12-10T22:54:39.680Z,2.46
2018-12-10T22:57:08.294Z,2.38
2018-12-10T22:59:37.822Z,2.51
2018-12-10T23:02:08.076Z,2.42
2018-12-10T23:04:37.248Z,2.31
2018-12-10T23:07:05.879Z,2.26
2018-12-10T23:09:34.428Z,2.05
2018-12-10T23:12:02.887Z,2.10
2018-12-10T23:14:31.418Z,2.23
2018-12-10T23:17:00.024Z,2.27
2018-12-10T23:19:29.702Z,2.07
2018-12-10T23:21:58.195Z,2.09
2018-12-10T23:24:27.176Z,1.90
2018-12-10T23:27:01.131Z,1.71
2018-12-10T23:29:30.294Z,1.70
2018-12-10T23:31:59.345Z,1.63
2018-12-10T23:34:27.910Z,1.70
2018-12-10T23:36:56.342Z,1.59
2018-12-10T23:39:24.830Z,1.68
2018-12-10T23:41:53.392Z,1.81
2018-12-10T23:44:27.204Z,1.83
2018-12-10T23:46:56.413Z,1.69
2018-12-10T23:49:24.951Z,1.65
2018-12-10T23:51:53.410Z,1.63
2018-12-10T23:54:21.887Z,1.66
2018-12-10T23:56:50.523Z,1.57
2018-12-10T23:59:19.056Z,1.53
